Time;durP1;ratioP1;P1;durP2;ratioP2;P2;SDS_P1;SDS_P2;PMS_P1;PMS_P2;Temp;Humidity;BMP_temperature;BMP_pressure;BME280_temperature;BME280_humidity;BME280_pressure;Samples;Min_cycle;Max_cycle;Signal;HPM_P1;HPM_P2
2022/05/10 00:02:17;;;;;;;8.30;4.27;;;14.00;63.80;;;14.16;48.89;95426.31;5062955;28;20463;-54
2022/05/10 00:04:46;;;;;;;12.40;3.90;;;13.90;63.60;;;14.09;48.73;95414.63;5058487;28;20521;-55
2022/05/10 00:07:13;;;;;;;9.17;4.80;;;13.90;63.40;;;14.03;48.64;95420.53;5057101;28;20792;-55
2022/05/10 00:09:40;;;;;;;7.47;4.30;;;13.80;63.50;;;13.95;48.64;95414.16;5062019;28;20459;-56
2022/05/10 00:12:08;;;;;;;7.07;4.30;;;13.70;63.40;;;13.88;49.01;95420.16;5057353;28;20471;-56
2022/05/10 00:14:36;;;;;;;4.80;4.30;;;13.70;63.90;;;13.83;48.89;95414.50;5065471;28;20450;-55
2022/05/10 00:17:03;;;;;;;8.50;4.13;;;13.60;63.90;;;13.77;49.03;95406.19;5049896;28;20475;-56
2022/05/10 00:19:32;;;;;;;7.83;4.17;;;13.50;64.30;;;13.72;49.48;95410.22;5054228;28;20459;-56
2022/05/10 00:22:00;;;;;;;6.77;3.87;;;13.50;65.00;;;13.68;49.42;95416.78;5061172;28;20481;-55
2022/05/10 00:24:27;;;;;;;3.50;3.20;;;13.50;65.00;;;13.63;49.56;95417.22;5062774;28;20470;-56
2022/05/10 00:26:55;;;;;;;5.13;3.40;;;13.40;65.10;;;13.56;49.89;95424.91;5058592;28;20482;-54
2022/05/10 00:29:22;;;;;;;6.30;4.00;;;13.40;65.30;;;13.52;49.54;95417.41;5061524;28;20990;-55
2022/05/10 00:31:50;;;;;;;13.50;4.20;;;13.30;65.20;;;13.48;49.23;95422.16;5056048;28;20475;-56
2022/05/10 00:34:18;;;;;;;3.63;3.20;;;13.30;65.30;;;13.43;49.68;95419.94;5061185;28;20459;-55
2022/05/10 00:36:46;;;;;;;7.03;3.50;;;13.20;65.60;;;13.39;49.85;95428.28;5061993;28;20496;-55
2022/05/10 00:39:14;;;;;;;5.33;4.10;;;13.20;65.90;;;13.34;50.02;95419.94;5056546;28;20459;-54
2022/05/10 00:41:53;;;;;;;13.10;3.70;;;13.10;66.00;;;13.29;49.94;95415.06;5063226;28;20494;-56
2022/05/10 00:44:25;;;;;;;3.83;2.90;;;13.10;66.00;;;13.22;49.91;95412.16;5065294;28;20478;-56
2022/05/10 00:47:02;;;;;;;6.40;3.40;;;13.00;65.90;;;13.20;50.71;95418.56;5054276;28;20555;-54
2022/05/10 00:49:31;;;;;;;6.70;3.43;;;13.00;67.50;;;13.16;50.40;95412.72;5057740;28;20451;-54
2022/05/10 00:52:03;;;;;;;6.00;3.87;;;12.90;67.00;;;13.12;50.49;95419.28;5054350;28;20475;-56
2022/05/10 00:54:33;;;;;;;3.93;3.27;;;12.90;67.20;;;13.09;50.71;95411.66;5061894;28;20443;-56
2022/05/10 00:57:10;;;;;;;6.77;3.53;;;12.90;67.60;;;13.06;51.01;95411.94;5060212;28;20507;-55
2022/05/10 00:59:48;;;;;;;7.33;4.87;;;12.80;67.70;;;13.04;51.18;95408.59;5051447;28;20848;-57
2022/05/10 01:02:22;;;;;;;11.80;4.40;;;12.80;68.50;;;13.02;50.55;95407.91;5053020;28;20463;-55
2022/05/10 01:04:53;;;;;;;8.73;5.80;;;12.80;68.00;;;13.00;50.96;95408.03;5058006;28;20452;-57
2022/05/10 01:07:26;;;;;;;10.90;7.97;;;12.80;68.30;;;13.00;50.50;95401.94;5057520;28;20462;-54
2022/05/10 01:09:57;;;;;;;18.60;7.97;;;12.70;68.20;;;12.98;50.66;95403.88;5059665;28;20451;-55
2022/05/10 01:12:30;;;;;;;10.43;7.47;;;12.70;68.20;;;12.96;50.52;95411.09;5059639;28;20572;-55
2022/05/10 01:15:00;;;;;;;10.20;7.83;;;12.70;68.20;;;12.95;50.68;95404.16;5057804;28;20486;-56
2022/05/10 01:17:28;;;;;;;19.53;8.00;;;12.70;68.70;;;12.95;50.53;95404.16;5051675;28;20451;-60
2022/05/10 01:19:55;;;;;;;15.30;7.03;;;12.70;68.70;;;12.95;51.03;95404.16;5053631;28;20460;-56
2022/05/10 01:22:38;;;;;;;10.60;6.20;;;12.70;68.80;;;12.95;51.23;95397.09;5060043;28;20463;-55
2022/05/10 01:25:25;;;;;;;9.23;5.43;;;12.70;69.20;;;12.94;51.73;95398.03;5059309;28;20545;-55
2022/05/10 01:28:12;;;;;;;5.70;4.97;;;12.70;69.90;;;12.95;51.12;95398.88;5056760;28;20466;-55
2022/05/10 01:30:40;;;;;;;10.00;5.07;;;12.70;69.60;;;12.92;51.16;95400.00;5054551;28;20479;-56
2022/05/10 01:33:29;;;;;;;10.37;5.60;;;12.70;69.70;;;12.91;51.54;95399.16;5045309;28;20463;-56
2022/05/10 01:36:06;;;;;;;7.27;4.90;;;12.70;70.50;;;12.90;51.56;95397.50;5058004;28;20486;-55
2022/05/10 01:38:42;;;;;;;11.33;5.80;;;12.70;70.50;;;12.89;51.85;95395.84;5059594;28;20831;-56
2022/05/10 01:41:17;;;;;;;6.97;5.70;;;12.70;71.00;;;12.89;51.65;95400.28;5053116;28;20504;-56
2022/05/10 01:43:49;;;;;;;7.10;5.00;;;12.70;70.70;;;12.87;52.05;95397.78;5054214;28;20462;-54
2022/05/10 01:46:19;;;;;;;7.07;5.10;;;12.70;72.00;;;12.86;52.23;95396.13;5056224;28;20547;-56
2022/05/10 01:48:50;;;;;;;6.33;4.80;;;12.70;72.00;;;12.84;52.00;95397.22;5052538;28;20462;-55
2022/05/10 01:51:19;;;;;;;7.50;5.40;;;12.60;71.80;;;12.82;52.00;95394.72;5063501;28;20488;-53
2022/05/10 01:53:47;;;;;;;9.23;5.43;;;12.60;72.00;;;12.80;51.86;95390.56;5049253;28;20468;-55
2022/05/10 01:56:17;;;;;;;6.13;4.90;;;12.60;72.00;;;12.77;52.63;95386.41;5055270;28;21007;-55
2022/05/10 01:58:47;;;;;;;7.83;4.57;;;12.60;73.10;;;12.75;52.39;95396.28;5055581;28;20455;-56
2022/05/10 02:01:20;;;;;;;11.90;5.23;;;12.60;73.10;;;12.74;52.66;95389.31;5055049;28;20509;-55
2022/05/10 02:03:53;;;;;;;10.80;4.73;;;12.60;73.40;;;12.73;52.80;95390.28;5049144;28;20992;-56
2022/05/10 02:06:32;;;;;;;7.13;5.20;;;12.50;74.00;;;12.70;52.91;95382.63;5051886;28;20549;-55
2022/05/10 02:09:08;;;;;;;14.03;4.83;;;12.50;73.70;;;12.68;53.21;95387.25;5047376;28;20466;-55
2022/05/10 02:11:38;;;;;;;8.27;4.57;;;12.50;73.70;;;12.65;52.95;95393.63;5059072;28;20484;-55
2022/05/10 02:14:12;;;;;;;9.37;5.33;;;12.50;74.00;;;12.62;53.43;95390.44;5053355;28;20451;-56
2022/05/10 02:16:43;;;;;;;12.37;4.20;;;12.50;74.50;;;12.60;53.20;95395.03;5055114;28;20472;-55
2022/05/10 02:19:14;;;;;;;13.03;4.50;;;12.40;74.30;;;12.57;53.05;95390.84;5057505;28;20461;-55
2022/05/10 02:21:45;;;;;;;13.03;4.43;;;12.40;74.40;;;12.51;52.94;95389.59;5052940;28;21008;-56
2022/05/10 02:24:17;;;;;;;8.40;4.83;;;12.30;74.20;;;12.50;53.34;95395.88;5052079;28;20540;-56
2022/05/10 02:26:48;;;;;;;10.67;3.93;;;12.30;74.70;;;12.47;53.29;95397.91;5057475;28;20479;-54
2022/05/10 02:29:21;;;;;;;12.00;4.97;;;12.30;75.00;;;12.42;53.18;95390.41;5050534;28;21021;-55
2022/05/10 02:34:36;;;;;;;11.23;5.13;;;12.20;74.00;;;12.36;53.10;95394.47;5053735;28;20470;-56
2022/05/10 02:37:04;;;;;;;9.33;4.40;;;12.20;74.50;;;12.34;53.27;95395.56;5049706;28;20545;-56
2022/05/10 02:39:31;;;;;;;7.20;4.00;;;12.20;74.70;;;12.31;53.46;95396.66;5047195;28;20482;-56
2022/05/10 02:41:59;;;;;;;9.70;5.00;;;12.20;75.30;;;12.29;53.66;95397.78;5054846;28;20526;-54
2022/05/10 02:44:28;;;;;;;10.50;4.60;;;12.10;76.60;;;12.24;53.64;95387.66;5060183;28;20466;-56
2022/05/10 02:46:57;;;;;;;12.27;4.40;;;12.10;75.90;;;12.21;53.85;95393.19;5057645;28;20484;-54
2022/05/10 02:49:24;;;;;;;5.77;4.20;;;12.00;75.80;;;12.19;54.07;95392.47;5046758;28;20459;-56
2022/05/10 02:51:51;;;;;;;6.90;4.60;;;12.00;76.30;;;12.16;54.17;95398.03;5049795;28;20479;-55
2022/05/10 02:54:19;;;;;;;5.40;4.07;;;12.00;76.60;;;12.14;54.40;95395.53;5050338;28;20467;-55
2022/05/10 02:56:46;;;;;;;9.53;4.63;;;12.00;77.00;;;12.13;54.31;95393.88;5060393;28;20816;-56
2022/05/10 02:59:17;;;;;;;7.63;4.07;;;11.90;77.10;;;12.12;54.25;95405.38;5052511;28;20464;-55
2022/05/10 03:01:49;;;;;;;10.00;4.70;;;11.90;76.90;;;12.09;54.61;95397.75;5051474;28;20509;-56
2022/05/10 03:04:16;;;;;;;6.37;4.73;;;11.90;77.60;;;12.08;54.48;95396.06;5053597;28;20454;-56
2022/05/10 03:06:46;;;;;;;4.27;3.43;;;11.90;77.60;;;12.07;54.56;95402.34;5053097;28;20479;-56
2022/05/10 03:09:13;;;;;;;8.67;4.30;;;11.90;77.70;;;12.04;54.19;95397.34;5048347;28;21095;-56
2022/05/10 03:11:40;;;;;;;14.87;4.47;;;11.80;77.50;;;12.05;54.31;95406.88;5049055;28;20895;-60
2022/05/10 03:14:09;;;;;;;4.73;4.23;;;11.90;77.20;;;12.05;54.48;95396.34;5041136;28;20456;-55
2022/05/10 03:16:36;;;;;;;11.87;4.30;;;11.90;77.20;;;12.04;54.46;95405.25;5049100;28;20484;-55
2022/05/10 03:19:05;;;;;;;6.80;4.27;;;11.90;77.60;;;12.05;54.66;95396.34;5055696;28;20455;-55
2022/05/10 03:21:33;;;;;;;4.70;4.13;;;11.80;77.60;;;12.04;54.73;95391.22;5051423;28;20478;-56
2022/05/10 03:24:00;;;;;;;12.67;6.07;;;11.90;78.40;;;12.03;54.86;95403.56;5052611;28;20593;-57
2022/05/10 03:26:27;;;;;;;13.20;5.00;;;11.80;78.40;;;12.03;55.10;95406.19;5052613;28;20475;-56
2022/05/10 03:28:55;;;;;;;10.20;4.23;;;11.90;79.00;;;12.04;55.41;95405.25;5060700;28;20653;-55
2022/05/10 03:31:23;;;;;;;7.23;3.73;;;11.90;79.20;;;12.06;55.21;95399.84;5046276;28;20476;-59
2022/05/10 03:34:54;;;;;;;9.80;3.63;;;11.90;79.40;;;12.07;55.24;95409.38;5055447;28;20463;-57
2022/05/10 03:36:40;;;;;;;15.60;4.73;;;11.90;79.40;;;12.06;55.08;95410.38;5061353;28;20916;-56
2022/05/10 03:39:07;;;;;;;8.10;4.77;;;11.90;79.30;;;12.08;55.35;95416.34;5051999;28;20968;-55
2022/05/10 03:41:34;;;;;;;14.60;4.43;;;11.90;79.50;;;12.08;55.41;95414.53;5050709;28;20987;-55
2022/05/10 03:44:02;;;;;;;8.37;3.90;;;11.90;79.70;;;12.10;55.13;95415.25;5052582;28;20463;-58
2022/05/10 03:46:29;;;;;;;29.97;5.07;;;11.90;79.40;;;12.14;55.37;95415.78;5051263;28;20998;-57
2022/05/10 03:48:56;;;;;;;11.97;4.80;;;11.90;79.20;;;12.15;55.32;95412.19;5043388;28;20998;-57
2022/05/10 03:51:24;;;;;;;9.50;4.20;;;11.90;79.20;;;12.16;55.25;95413.84;5042049;28;20479;-59
2022/05/10 03:53:53;;;;;;;10.20;4.30;;;12.00;79.50;;;12.17;55.27;95416.34;5042923;28;20575;-55
2022/05/10 03:56:20;;;;;;;13.30;4.47;;;12.00;79.30;;;12.17;55.67;95416.34;5056976;28;20473;-56
2022/05/10 03:58:47;;;;;;;8.70;4.90;;;12.00;80.10;;;12.17;55.54;95424.25;5045177;28;20448;-57
2022/05/10 04:01:15;;;;;;;11.73;4.00;;;12.00;79.70;;;12.17;55.25;95421.63;5062300;28;20499;-57
2022/05/10 04:03:42;;;;;;;23.30;4.97;;;12.00;79.30;;;12.19;55.02;95430.25;5059139;28;20456;-54
2022/05/10 04:06:10;;;;;;;12.63;4.83;;;12.00;79.20;;;12.18;54.89;95423.31;5055650;28;20486;-56
2022/05/10 04:08:38;;;;;;;14.80;5.43;;;12.00;78.40;;;12.17;54.57;95421.63;5054425;28;20452;-56
2022/05/10 04:11:08;;;;;;;13.20;5.70;;;12.00;78.00;;;12.15;54.93;95428.84;5055617;28;20463;-56
2022/05/10 04:13:35;;;;;;;15.07;4.97;;;12.00;78.00;;;12.13;54.81;95429.94;5053965;28;20440;-55
2022/05/10 04:16:03;;;;;;;10.40;4.80;;;12.00;78.40;;;12.13;55.00;95435.22;5052190;28;21008;-56
2022/05/10 04:18:30;;;;;;;18.70;5.30;;;12.00;78.80;;;12.13;54.75;95430.78;5052675;28;20460;-55
2022/05/10 04:20:58;;;;;;;22.90;5.60;;;12.00;78.50;;;12.16;54.76;95433.16;5061507;28;20869;-57
2022/05/10 04:23:25;;;;;;;9.40;4.90;;;12.00;78.90;;;12.19;54.80;95438.16;5051325;28;20444;-57
2022/05/10 04:25:52;;;;;;;8.50;4.60;;;12.00;78.60;;;12.25;54.90;95441.22;5042039;28;20472;-54
2022/05/10 04:28:21;;;;;;;14.33;4.13;;;12.00;78.90;;;12.33;54.94;95442.22;5045801;28;20451;-56
2022/05/10 04:30:48;;;;;;;9.33;4.93;;;12.10;79.10;;;12.40;54.99;95436.41;5046138;28;20467;-56
2022/05/10 04:33:16;;;;;;;13.33;4.50;;;12.10;79.30;;;12.48;55.22;95434.72;5046808;28;20530;-55
2022/05/10 04:35:43;;;;;;;9.00;4.67;;;12.20;79.60;;;12.55;55.12;95432.38;5049136;28;20464;-55
2022/05/10 04:38:10;;;;;;;6.70;4.10;;;12.30;79.70;;;12.61;54.34;95433.63;5061254;28;20459;-55
2022/05/10 04:43:24;;;;;;;11.67;4.53;;;12.40;78.20;;;12.75;54.50;95441.16;5062153;28;20487;-56
2022/05/10 04:45:51;;;;;;;6.63;5.10;;;12.50;78.20;;;12.83;54.84;95437.81;5060757;28;20479;-56
2022/05/10 04:48:18;;;;;;;21.43;6.67;;;12.60;79.20;;;12.94;54.91;95439.47;5051044;28;20455;-56
2022/05/10 04:50:46;;;;;;;19.40;6.47;;;12.70;79.60;;;13.06;54.23;95438.34;5058481;28;20475;-55
2022/05/10 04:53:13;;;;;;;29.23;6.57;;;12.80;78.60;;;13.16;53.94;95441.78;5048559;28;20455;-56
2022/05/10 04:55:41;;;;;;;15.10;6.60;;;12.90;78.70;;;13.25;54.29;95443.59;5051871;28;20487;-56
2022/05/10 04:58:08;;;;;;;28.13;7.00;;;13.00;78.60;;;13.35;54.08;95448.03;5037890;28;20466;-54
2022/05/10 05:00:37;;;;;;;22.53;7.20;;;13.10;78.60;;;13.45;53.75;95446.22;5050592;28;20498;-57
2022/05/10 05:03:08;;;;;;;24.30;6.97;;;13.20;77.90;;;13.55;53.94;95444.38;5056311;28;21036;-54
2022/05/10 05:05:36;;;;;;;15.20;7.40;;;13.30;78.00;;;13.63;53.63;95447.13;5062695;28;20486;-55
2022/05/10 05:08:03;;;;;;;31.40;8.30;;;13.40;77.40;;;13.72;52.97;95450.69;5057270;28;20999;-56
2022/05/10 05:10:31;;;;;;;13.43;7.13;;;13.50;77.00;;;13.81;53.48;95454.31;5063429;28;20490;-55
2022/05/10 05:12:58;;;;;;;17.47;6.40;;;13.50;76.80;;;13.90;53.25;95447.31;5056362;28;20462;-54
2022/05/10 05:15:26;;;;;;;28.13;6.83;;;13.60;76.80;;;14.01;53.00;95443.66;5063528;28;20819;-55
2022/05/10 05:17:54;;;;;;;14.67;4.77;;;13.80;76.80;;;14.12;52.59;95446.91;5065886;28;20840;-55
2022/05/10 05:20:21;;;;;;;10.67;4.20;;;13.80;75.60;;;14.23;51.95;95445.88;5056512;28;20475;-55
2022/05/10 05:22:49;;;;;;;21.30;5.20;;;13.90;74.00;;;14.35;51.85;95447.34;5060241;28;20490;-57
2022/05/10 05:25:17;;;;;;;14.90;4.90;;;14.10;73.60;;;14.53;51.17;95449.16;5064170;28;20471;-56
2022/05/10 05:27:44;;;;;;;9.73;4.63;;;14.20;73.60;;;14.73;50.68;95446.41;5060102;28;20458;-57
2022/05/10 05:30:13;;;;;;;28.17;5.87;;;14.30;72.40;;;14.93;50.82;95455.88;5058295;28;20478;-58
2022/05/10 05:32:41;;;;;;;25.47;5.67;;;14.60;72.80;;;15.20;50.47;95446.16;5059076;28;20462;-56
2022/05/10 05:35:11;;;;;;;21.47;6.40;;;14.80;72.70;;;15.47;50.39;95447.84;5060723;28;20557;-56
2022/05/10 05:37:38;;;;;;;17.33;5.43;;;15.00;72.10;;;15.73;49.78;95442.53;5066412;28;20862;-56
2022/05/10 05:40:09;;;;;;;21.17;6.03;;;15.30;71.20;;;16.01;49.53;95444.19;5061373;28;20463;-53
2022/05/10 05:42:37;;;;;;;9.50;5.50;;;15.50;70.70;;;16.24;48.96;95439.16;5061631;28;20501;-54
2022/05/10 05:45:05;;;;;;;16.23;5.57;;;15.80;70.10;;;16.54;48.38;95428.94;5057312;28;20451;-55
2022/05/10 05:47:33;;;;;;;14.20;5.33;;;16.10;69.20;;;16.79;48.12;95443.06;5059606;28;20458;-55
2022/05/10 05:50:00;;;;;;;11.77;4.83;;;16.30;67.90;;;17.02;47.30;95430.00;5057852;28;20538;-56
2022/05/10 05:52:29;;;;;;;10.03;5.37;;;16.50;65.90;;;17.22;46.62;95430.50;5058526;28;20489;-56
2022/05/10 05:54:56;;;;;;;8.60;4.33;;;16.80;65.40;;;17.43;46.18;95430.00;5060488;28;20452;-56
2022/05/10 05:57:24;;;;;;;10.63;5.70;;;17.00;63.50;;;17.51;45.53;95431.81;5060224;28;20504;-56
2022/05/10 05:59:54;;;;;;;13.17;4.87;;;17.10;62.10;;;17.59;45.26;95436.28;5054408;28;20451;-57
2022/05/10 06:02:22;;;;;;;20.50;5.20;;;17.20;61.50;;;17.73;45.00;95433.75;5054361;28;20573;-57
2022/05/10 06:04:50;;;;;;;5.73;3.40;;;17.20;60.90;;;17.90;44.91;95431.91;5054258;28;20892;-58
2022/05/10 06:07:17;;;;;;;12.73;5.00;;;17.40;59.90;;;18.07;44.33;95431.84;5063199;28;20450;-54
2022/05/10 06:09:49;;;;;;;7.43;4.07;;;17.60;59.70;;;18.32;44.46;95437.06;5060770;28;20448;-56
2022/05/10 06:12:18;;;;;;;16.53;4.47;;;17.80;59.30;;;18.54;44.24;95438.09;5058098;28;20961;-55
2022/05/10 06:14:45;;;;;;;9.30;4.53;;;18.00;58.90;;;18.81;43.81;95444.78;5062113;28;20507;-55
2022/05/10 06:17:13;;;;;;;9.10;5.23;;;18.20;58.40;;;19.07;43.67;95444.47;5058553;28;20462;-56
2022/05/10 06:19:41;;;;;;;9.70;5.10;;;18.50;58.20;;;19.33;42.97;95435.25;5060957;28;20462;-55
2022/05/10 06:22:10;;;;;;;7.03;5.97;;;18.80;57.60;;;19.50;42.65;95433.25;5059114;28;20871;-55
2022/05/10 06:24:37;;;;;;;19.93;5.53;;;19.00;56.40;;;19.61;42.50;95445.31;5055569;28;20458;-57
2022/05/10 06:27:08;;;;;;;13.00;5.20;;;19.10;56.20;;;19.78;42.08;95440.69;5059575;28;20475;-54
2022/05/10 06:29:36;;;;;;;13.83;5.00;;;19.20;55.70;;;19.89;41.86;95437.56;5060939;28;20455;-57
2022/05/10 06:32:04;;;;;;;18.83;5.80;;;19.30;55.10;;;20.01;41.38;95430.75;5060200;28;20548;-54
2022/05/10 06:34:31;;;;;;;13.70;5.33;;;19.40;55.00;;;20.17;41.52;95435.09;5059964;28;20496;-57
2022/05/10 06:36:59;;;;;;;10.07;4.93;;;19.60;55.10;;;20.40;41.33;95426.94;5054600;28;20471;-56
2022/05/10 06:39:27;;;;;;;23.07;5.03;;;19.80;54.70;;;20.66;41.26;95422.94;5061929;28;20449;-58
2022/05/10 06:41:54;;;;;;;9.13;4.13;;;20.00;54.60;;;20.92;40.54;95424.25;5056495;28;20491;-57
2022/05/10 06:44:25;;;;;;;16.00;4.20;;;20.20;54.00;;;21.14;40.37;95431.22;5057196;28;20466;-56
2022/05/10 06:46:52;;;;;;;17.40;4.03;;;20.50;53.50;;;21.41;40.07;95425.28;5057376;28;20502;-57
2022/05/10 06:49:19;;;;;;;6.43;5.73;;;20.80;53.30;;;21.66;39.51;95423.03;5059852;28;21033;-57
2022/05/10 06:51:48;;;;;;;8.67;4.87;;;21.00;52.50;;;21.91;39.25;95425.28;5059576;28;20816;-55
2022/05/10 06:54:15;;;;;;;10.40;4.43;;;21.30;52.20;;;22.10;38.81;95423.72;5060442;28;20521;-57
2022/05/10 06:56:42;;;;;;;9.80;4.70;;;21.40;51.30;;;22.28;37.97;95423.19;5059811;28;20911;-57
2022/05/10 06:59:10;;;;;;;8.93;5.77;;;21.60;50.50;;;22.41;38.09;95427.81;5055825;28;20535;-58
2022/05/10 07:01:39;;;;;;;24.93;5.60;;;21.80;50.40;;;22.58;37.76;95428.28;5058350;28;20872;-56
2022/05/10 07:04:07;;;;;;;10.70;5.20;;;21.90;50.20;;;22.70;38.11;95426.69;5058932;28;20463;-57
2022/05/10 07:06:34;;;;;;;10.20;5.70;;;22.10;50.30;;;22.87;37.70;95424.47;5063380;28;20466;-57
2022/05/10 07:09:02;;;;;;;16.00;5.67;;;22.20;49.70;;;22.99;37.04;95419.31;5058573;28;20511;-56
2022/05/10 07:11:29;;;;;;;26.30;6.20;;;22.30;49.30;;;23.01;36.68;95417.25;5059353;28;20586;-55
2022/05/10 07:13:57;;;;;;;15.00;6.07;;;22.40;48.60;;;23.05;37.30;95421.16;5062964;28;20450;-56
2022/05/10 07:16:25;;;;;;;18.57;6.77;;;22.40;48.40;;;23.15;37.06;95418.97;5052797;28;20494;-57
2022/05/10 07:18:55;;;;;;;10.37;5.20;;;22.50;48.80;;;23.35;36.91;95420.84;5059489;28;20466;-55
2022/05/10 07:21:23;;;;;;;15.63;5.30;;;22.70;48.80;;;23.59;36.58;95420.22;5059881;28;20991;-56
2022/05/10 07:23:50;;;;;;;18.73;6.90;;;22.90;48.60;;;23.82;36.57;95418.94;5055379;28;20537;-57
2022/05/10 07:26:18;;;;;;;14.20;5.70;;;23.10;48.50;;;24.00;36.21;95421.00;5065368;28;20522;-56
2022/05/10 07:28:46;;;;;;;7.00;5.33;;;23.30;48.20;;;24.22;36.41;95421.56;5056233;28;20459;-56
2022/05/10 07:31:14;;;;;;;20.43;6.00;;;23.60;48.10;;;24.47;35.98;95418.16;5061965;28;20466;-55
2022/05/10 07:33:41;;;;;;;19.43;6.50;;;23.80;47.40;;;24.76;35.16;95426.75;5057660;28;20552;-57
2022/05/10 07:36:25;;;;;;;15.33;5.20;;;24.00;47.00;;;24.88;34.89;95419.66;5062622;28;20479;-57
2022/05/10 07:38:53;;;;;;;10.83;5.00;;;24.30;45.90;;;24.85;34.64;95420.09;5055504;28;20784;-56
2022/05/10 07:41:22;;;;;;;12.43;5.30;;;24.30;45.50;;;24.95;34.67;95420.44;5059584;28;20478;-55
2022/05/10 07:43:50;;;;;;;11.50;4.77;;;24.30;45.60;;;25.18;33.76;95414.47;5060332;28;20491;-56
2022/05/10 07:46:18;;;;;;;8.33;4.23;;;24.50;45.00;;;25.44;33.79;95411.84;5060639;28;20489;-55
2022/05/10 07:48:46;;;;;;;9.97;3.80;;;24.80;44.70;;;25.63;32.68;95416.25;5050936;28;20455;-57
2022/05/10 07:51:15;;;;;;;10.63;4.60;;;25.00;43.70;;;25.68;33.03;95413.69;5061983;28;20463;-57
2022/05/10 07:53:42;;;;;;;9.90;4.07;;;25.10;43.10;;;25.86;32.92;95414.78;5056137;28;20451;-56
2022/05/10 07:56:10;;;;;;;14.70;4.40;;;25.20;43.10;;;26.11;32.65;95403.97;5062060;28;20473;-59
2022/05/10 07:58:38;;;;;;;14.27;4.23;;;25.40;43.20;;;26.45;32.22;95410.63;5044624;28;20455;-55
2022/05/10 08:01:05;;;;;;;11.70;4.60;;;25.70;42.90;;;26.72;31.86;95401.41;5050881;28;20475;-56
2022/05/10 08:03:33;;;;;;;6.03;3.23;;;26.00;42.10;;;26.95;31.86;95411.47;5056319;28;20494;-56
2022/05/10 08:06:00;;;;;;;5.47;3.57;;;26.30;42.20;;;27.22;31.23;95411.94;5062677;28;20463;-54
2022/05/10 08:08:33;;;;;;;10.30;3.17;;;26.50;41.10;;;27.47;30.81;95400.94;5062858;28;20546;-56
2022/05/10 08:11:00;;;;;;;14.90;4.27;;;26.80;40.50;;;27.78;30.17;95407.09;5057602;28;20486;-57
2022/05/10 08:13:31;;;;;;;5.57;3.20;;;27.10;40.10;;;28.08;29.80;95404.28;5061907;28;20451;-56
2022/05/10 08:15:58;;;;;;;10.90;3.10;;;27.30;39.60;;;28.40;29.57;95400.34;5060007;28;20471;-57
2022/05/10 08:18:26;;;;;;;8.77;2.83;;;27.70;39.30;;;28.72;28.86;95408.03;5064241;28;20454;-56
2022/05/10 08:20:55;;;;;;;4.23;2.40;;;28.00;38.80;;;29.00;28.67;95404.50;5060819;28;20571;-57
2022/05/10 08:23:24;;;;;;;5.43;1.97;;;28.30;38.30;;;29.03;27.28;95397.78;5064492;28;20493;-54
2022/05/10 08:25:54;;;;;;;4.67;2.23;;;28.40;35.70;;;28.77;26.83;95391.91;5061533;28;20478;-56
2022/05/10 08:28:22;;;;;;;4.47;2.47;;;28.30;34.60;;;28.61;26.85;95391.63;5063755;28;20454;-55
2022/05/10 08:30:49;;;;;;;3.97;2.63;;;28.10;34.50;;;28.48;26.96;95386.44;5059496;28;20471;-57
2022/05/10 08:33:19;;;;;;;3.20;2.07;;;28.00;35.50;;;28.44;27.20;95385.25;5061517;28;20460;-57
2022/05/10 08:35:47;;;;;;;4.70;1.90;;;27.90;35.50;;;28.60;27.07;95389.97;5065198;28;20489;-54
2022/05/10 08:38:14;;;;;;;5.53;2.50;;;28.00;35.80;;;28.88;26.92;95391.03;5062701;28;20454;-57
2022/05/10 08:40:44;;;;;;;5.60;2.30;;;28.20;35.30;;;29.22;26.71;95385.72;5062332;28;20474;-56
2022/05/10 08:43:18;;;;;;;15.47;2.80;;;28.50;35.30;;;29.57;25.72;95381.13;5060760;28;20494;-57
2022/05/10 08:45:46;;;;;;;9.67;2.67;;;28.80;34.70;;;29.78;25.82;95384.97;5058953;28;20470;-55
2022/05/10 08:48:13;;;;;;;4.53;2.60;;;29.10;33.60;;;29.60;24.61;95384.16;5063543;28;20481;-55
2022/05/10 08:50:43;;;;;;;3.63;2.00;;;29.00;32.40;;;29.30;24.51;95382.59;5063812;28;20994;-56
2022/05/10 08:53:11;;;;;;;9.30;2.07;;;28.80;31.60;;;29.12;24.42;95374.66;5057046;28;20453;-56
2022/05/10 08:55:43;;;;;;;9.23;2.47;;;28.70;31.60;;;28.98;25.20;95372.25;5059254;28;20481;-56
2022/05/10 08:58:47;;;;;;;3.27;2.30;;;28.50;32.50;;;29.10;24.75;95372.19;5055426;28;20806;-57
2022/05/10 09:01:16;;;;;;;2.03;1.73;;;28.50;32.50;;;29.20;24.93;95373.47;5045926;28;20481;-55
2022/05/10 09:03:46;;;;;;;5.63;2.10;;;28.60;32.60;;;29.21;25.19;95373.22;5061092;28;20501;-56
2022/05/10 09:06:35;;;;;;;1.97;1.80;;;28.60;32.20;;;29.01;24.51;95364.72;5058100;28;20474;-56
2022/05/10 09:09:11;;;;;;;1.90;1.70;;;28.50;32.00;;;28.72;24.48;95364.72;5063209;28;20532;-57
2022/05/10 09:11:46;;;;;;;13.67;2.30;;;28.30;32.10;;;28.73;25.01;95367.19;5060595;28;21092;-56
2022/05/10 09:14:15;;;;;;;4.20;1.90;;;28.20;32.30;;;28.97;25.20;95367.09;5062958;28;20784;-54
2022/05/10 09:16:42;;;;;;;3.47;1.83;;;28.30;33.00;;;29.28;25.37;95359.50;5059852;28;20927;-55
2022/05/10 09:19:12;;;;;;;8.87;2.43;;;28.60;32.60;;;29.43;24.99;95358.94;5056680;28;20485;-57
2022/05/10 09:21:48;;;;;;;2.83;2.53;;;28.70;32.30;;;29.55;25.08;95359.69;5065459;28;20504;-57
2022/05/10 09:24:23;;;;;;;2.67;2.47;;;28.90;32.70;;;29.77;24.52;95359.72;5056580;28;20485;-57
2022/05/10 09:26:53;;;;;;;4.97;2.23;;;29.10;32.70;;;29.81;23.64;95349.25;5055789;28;20470;-55
2022/05/10 09:29:28;;;;;;;2.40;2.20;;;29.20;30.50;;;29.77;24.37;95354.31;5059870;28;20451;-56
2022/05/10 09:34:48;;;;;;;1.70;1.60;;;29.20;32.50;;;29.92;24.29;95350.22;5061502;28;20909;-55
2022/05/10 09:37:19;;;;;;;2.40;2.13;;;29.30;32.30;;;29.88;24.78;95358.00;5053370;28;20455;-57
2022/05/10 09:39:50;;;;;;;2.50;2.30;;;29.30;31.80;;;29.57;23.67;95335.84;5064948;28;20446;-56
2022/05/10 09:42:28;;;;;;;5.93;2.23;;;29.00;31.00;;;29.14;24.71;95338.13;5061790;28;20610;-57
2022/05/10 09:45:02;;;;;;;10.90;2.40;;;28.80;31.60;;;28.90;24.53;95340.16;5056262;28;20512;-56
2022/05/10 09:47:29;;;;;;;5.97;2.33;;;28.50;31.70;;;28.65;24.61;95337.81;5063037;28;20506;-57
2022/05/10 09:50:15;;;;;;;3.57;2.40;;;28.30;31.80;;;28.49;26.04;95344.78;5057336;28;20513;-57
2022/05/10 09:52:43;;;;;;;3.20;2.00;;;28.10;32.60;;;28.44;25.17;95341.97;5062930;28;20438;-56
2022/05/10 09:55:15;;;;;;;3.80;2.00;;;27.90;32.50;;;28.32;25.80;95328.50;5061395;28;20533;-56
2022/05/10 09:57:43;;;;;;;5.43;2.40;;;27.80;32.90;;;28.44;25.76;95333.84;5051617;28;20439;-55
2022/05/10 10:00:15;;;;;;;2.93;2.50;;;27.90;33.30;;;28.67;25.75;95324.03;5053815;28;20480;-57
2022/05/10 10:02:42;;;;;;;3.17;2.23;;;28.00;33.50;;;28.90;25.41;95312.25;5058011;28;20566;-55
2022/05/10 10:05:26;;;;;;;6.93;2.60;;;28.20;33.00;;;29.13;24.63;95320.22;5059632;28;21036;-58
2022/05/10 10:07:56;;;;;;;2.90;1.77;;;28.40;32.40;;;29.13;25.15;95327.53;5059804;28;21069;-58
2022/05/10 10:10:29;;;;;;;1.87;1.77;;;28.50;32.50;;;29.09;24.63;95307.44;5058359;28;20536;-57
2022/05/10 10:12:57;;;;;;;3.30;2.07;;;28.50;32.10;;;29.13;25.52;95306.69;5058371;28;20889;-58
2022/05/10 10:15:31;;;;;;;5.13;1.77;;;28.50;32.50;;;29.24;24.77;95307.69;5058816;28;20470;-65
2022/05/10 10:18:01;;;;;;;2.70;2.50;;;28.60;32.50;;;29.22;24.37;95296.31;5055428;28;20876;-58
2022/05/10 10:20:35;;;;;;;3.30;1.80;;;28.60;31.50;;;29.10;24.20;95287.41;5059299;28;20486;-57
2022/05/10 10:23:07;;;;;;;6.83;1.70;;;28.50;31.30;;;29.02;24.39;95290.50;5057817;28;20542;-56
2022/05/10 10:25:40;;;;;;;3.77;2.10;;;28.50;31.40;;;28.98;24.93;95288.28;5059816;28;20863;-54
2022/05/10 10:28:15;;;;;;;2.47;2.00;;;28.40;31.60;;;29.11;25.00;95286.31;5060451;28;20971;-54
2022/05/10 10:30:47;;;;;;;2.97;2.13;;;28.50;31.80;;;29.35;25.06;95283.47;5054935;28;20490;-57
2022/05/10 10:33:27;;;;;;;2.83;2.23;;;28.60;31.60;;;29.46;24.02;95287.97;5055194;28;20954;-57
2022/05/10 10:35:57;;;;;;;2.43;1.70;;;28.80;31.20;;;29.42;24.07;95281.41;5056184;28;20497;-56